Time;durP1;ratioP1;P1;durP2;ratioP2;P2;SDS_P1;SDS_P2;PMS_P1;PMS_P2;Temp;Humidity;BMP_temperature;BMP_pressure;BME280_temperature;BME280_humidity;BME280_pressure;Samples;Min_cycle;Max_cycle;Signal;HPM_P1;HPM_P2
2023/03/06 00:00:44;;;;;;;6.40;4.27;;;2.80;99.90;;;;;;5079543;28;20449;-59
2023/03/06 00:03:11;;;;;;;4.70;3.63;;;2.80;99.90;;;;;;5079916;28;20427;-62
2023/03/06 00:05:37;;;;;;;4.67;2.97;;;2.80;99.90;;;;;;5079381;28;20442;-57
2023/03/06 00:08:07;;;;;;;4.70;3.17;;;2.80;99.90;;;;;;5079592;28;20454;-56
2023/03/06 00:10:39;;;;;;;3.50;2.40;;;2.70;99.90;;;;;;5079815;28;20510;-60
2023/03/06 00:13:07;;;;;;;6.93;3.37;;;2.70;99.90;;;;;;5080113;28;20467;-59
2023/03/06 00:15:34;;;;;;;5.00;2.83;;;2.70;99.90;;;;;;5080679;28;20470;-58
2023/03/06 00:18:05;;;;;;;8.63;3.40;;;2.70;99.90;;;;;;5080645;28;20467;-60
2023/03/06 00:20:34;;;;;;;3.77;2.70;;;2.70;99.90;;;;;;5080778;28;20428;-58
2023/03/06 00:23:01;;;;;;;4.87;2.37;;;2.70;99.90;;;;;;5079734;28;20450;-61
2023/03/06 00:25:27;;;;;;;3.00;2.30;;;2.70;99.90;;;;;;5079143;28;20446;-62
2023/03/06 00:27:54;;;;;;;3.17;2.27;;;2.70;99.90;;;;;;5078919;28;20899;-62
2023/03/06 00:30:23;;;;;;;4.13;2.40;;;2.70;99.90;;;;;;5079668;28;20547;-62
2023/03/06 00:32:52;;;;;;;2.50;1.80;;;2.70;99.90;;;;;;5079501;28;20443;-59
2023/03/06 00:35:22;;;;;;;1.40;1.13;;;2.70;99.90;;;;;;5078975;28;20474;-61
2023/03/06 00:37:49;;;;;;;10.20;2.37;;;2.60;99.90;;;;;;5079118;28;20447;-64
2023/03/06 00:40:18;;;;;;;7.03;2.20;;;2.50;99.90;;;;;;5079286;28;20470;-63
2023/03/06 00:42:46;;;;;;;2.83;1.80;;;2.50;99.90;;;;;;5078943;28;20448;-57
2023/03/06 00:45:13;;;;;;;2.43;1.60;;;2.50;99.90;;;;;;5079197;28;20451;-57
2023/03/06 00:47:40;;;;;;;5.77;1.80;;;2.50;99.90;;;;;;5078794;28;20478;-61
2023/03/06 00:50:12;;;;;;;3.90;1.83;;;2.50;99.90;;;;;;5079294;28;20518;-60
2023/03/06 00:52:41;;;;;;;2.00;1.80;;;2.60;99.90;;;;;;5079860;28;20431;-59
2023/03/06 00:55:08;;;;;;;4.40;2.20;;;2.60;99.90;;;;;;5079601;28;20439;-60
2023/03/06 00:57:37;;;;;;;7.17;3.03;;;2.60;99.90;;;;;;5080190;28;20499;-61
2023/03/06 01:00:13;;;;;;;5.20;2.40;;;2.60;99.90;;;;;;5080613;28;20451;-53
2023/03/06 01:02:40;;;;;;;4.10;2.50;;;2.60;99.90;;;;;;5080781;28;20467;-52
2023/03/06 01:05:08;;;;;;;5.50;2.80;;;2.50;99.90;;;;;;5080702;28;20420;-56
2023/03/06 01:07:36;;;;;;;3.33;2.10;;;2.50;99.90;;;;;;5078356;28;20447;-58
2023/03/06 01:10:05;;;;;;;2.90;2.57;;;2.50;99.90;;;;;;5079033;28;20549;-62
2023/03/06 01:12:31;;;;;;;3.00;1.93;;;2.50;99.90;;;;;;5078883;28;20943;-63
2023/03/06 01:14:58;;;;;;;2.70;1.87;;;2.50;99.90;;;;;;5079220;28;20467;-57
2023/03/06 01:17:25;;;;;;;4.27;2.53;;;2.50;99.90;;;;;;5079434;28;20440;-63
2023/03/06 01:19:52;;;;;;;3.27;2.27;;;2.50;99.90;;;;;;5079453;28;20440;-62
2023/03/06 01:22:19;;;;;;;6.07;3.13;;;2.50;99.90;;;;;;5079043;28;20451;-62
2023/03/06 01:24:46;;;;;;;11.07;3.10;;;2.50;99.90;;;;;;5078997;28;20475;-59
2023/03/06 01:27:14;;;;;;;3.43;2.53;;;2.50;99.90;;;;;;5079181;28;20450;-62
2023/03/06 01:29:41;;;;;;;6.07;3.27;;;2.60;99.90;;;;;;5078590;28;20474;-59
2023/03/06 01:32:08;;;;;;;7.53;4.00;;;2.60;99.90;;;;;;5078897;28;20437;-65
2023/03/06 01:34:35;;;;;;;6.87;3.37;;;2.60;99.90;;;;;;5078026;28;20439;-62
2023/03/06 01:37:01;;;;;;;6.47;4.30;;;2.60;99.90;;;;;;5077704;28;20482;-62
2023/03/06 01:39:30;;;;;;;5.87;4.37;;;2.50;99.90;;;;;;5078057;28;20430;-64
2023/03/06 01:41:57;;;;;;;6.70;4.40;;;2.60;99.90;;;;;;5078005;28;20483;-63
2023/03/06 01:44:25;;;;;;;7.00;4.10;;;2.60;99.90;;;;;;5078157;28;20447;-63
2023/03/06 01:46:52;;;;;;;5.90;2.87;;;2.50;99.90;;;;;;5078493;28;20435;-62
2023/03/06 01:49:21;;;;;;;7.97;4.27;;;2.50;99.90;;;;;;5078124;28;20458;-60
2023/03/06 01:51:52;;;;;;;6.30;3.63;;;2.60;99.90;;;;;;5078221;28;20450;-61
2023/03/06 01:54:29;;;;;;;4.80;3.07;;;2.60;99.90;;;;;;5077829;28;20478;-62
2023/03/06 01:57:01;;;;;;;4.87;3.23;;;2.60;99.90;;;;;;5077542;28;20883;-62
2023/03/06 01:59:31;;;;;;;4.93;3.03;;;2.60;99.90;;;;;;5077348;28;20459;-61
2023/03/06 02:02:01;;;;;;;6.40;3.20;;;2.60;99.90;;;;;;5077836;28;20426;-61
2023/03/06 02:04:31;;;;;;;5.97;3.63;;;2.70;99.90;;;;;;5078289;28;20478;-63
2023/03/06 02:07:00;;;;;;;6.27;3.70;;;2.70;99.90;;;;;;5077569;28;20439;-60
2023/03/06 02:09:29;;;;;;;10.27;4.00;;;2.70;99.90;;;;;;5077894;28;20478;-62
2023/03/06 02:11:56;;;;;;;7.63;3.80;;;2.70;99.90;;;;;;5077550;28;20479;-62
2023/03/06 02:14:26;;;;;;;6.37;3.50;;;2.70;99.90;;;;;;5077734;28;20423;-63
2023/03/06 02:17:00;;;;;;;6.40;3.93;;;2.70;99.90;;;;;;5077576;28;20423;-65
2023/03/06 02:19:43;;;;;;;5.60;3.13;;;2.80;99.90;;;;;;5077714;28;20435;-60
2023/03/06 02:22:10;;;;;;;5.47;2.80;;;2.80;99.90;;;;;;5077502;28;20474;-63
2023/03/06 02:24:45;;;;;;;7.40;3.67;;;2.80;99.90;;;;;;5076996;28;20443;-59
2023/03/06 02:27:16;;;;;;;3.60;2.57;;;2.90;99.90;;;;;;5076953;28;20482;-62
2023/03/06 02:29:44;;;;;;;4.10;3.30;;;2.90;99.90;;;;;;5076987;28;20493;-63
2023/03/06 02:32:11;;;;;;;8.83;3.50;;;2.90;99.90;;;;;;5076717;28;20471;-56
2023/03/06 02:34:53;;;;;;;11.47;3.23;;;2.90;99.90;;;;;;5077009;28;20426;-60
2023/03/06 02:37:24;;;;;;;8.33;2.70;;;2.90;99.90;;;;;;5076783;28;20491;-62
2023/03/06 02:39:56;;;;;;;5.20;3.13;;;2.80;99.90;;;;;;5076639;28;20404;-62
2023/03/06 02:42:27;;;;;;;5.23;3.50;;;2.80;99.90;;;;;;5076905;28;20455;-61
2023/03/06 02:44:57;;;;;;;5.07;2.80;;;2.80;99.90;;;;;;5077171;28;20496;-65
2023/03/06 02:47:24;;;;;;;5.30;3.50;;;2.80;99.90;;;;;;5077018;28;20432;-60
2023/03/06 02:49:51;;;;;;;6.10;3.00;;;2.90;99.90;;;;;;5076806;28;20482;-60
2023/03/06 02:52:18;;;;;;;3.57;2.73;;;2.90;99.90;;;;;;5076845;28;20454;-58
2023/03/06 02:54:45;;;;;;;4.97;3.37;;;2.90;99.90;;;;;;5076985;28;20463;-62
2023/03/06 02:57:12;;;;;;;3.90;3.00;;;2.90;99.90;;;;;;5077001;28;20447;-63
2023/03/06 02:59:40;;;;;;;5.20;3.33;;;2.80;99.90;;;;;;5077127;28;20955;-61
2023/03/06 03:02:07;;;;;;;5.70;2.63;;;2.80;99.90;;;;;;5077688;28;20438;-63
2023/03/06 03:04:34;;;;;;;4.73;2.13;;;2.90;99.90;;;;;;5077818;28;20423;-62
2023/03/06 03:07:01;;;;;;;3.70;2.43;;;2.90;99.90;;;;;;5077710;28;20569;-62
2023/03/06 03:09:28;;;;;;;4.57;2.87;;;2.90;99.90;;;;;;5077565;28;20462;-61
2023/03/06 03:11:55;;;;;;;3.27;2.30;;;2.90;99.90;;;;;;5077494;28;20523;-58
2023/03/06 03:14:23;;;;;;;5.63;2.40;;;2.90;99.90;;;;;;5078121;28;20430;-60
2023/03/06 03:16:56;;;;;;;6.17;2.90;;;2.90;99.90;;;;;;5077861;28;20471;-63
2023/03/06 03:19:25;;;;;;;3.87;2.70;;;2.90;99.90;;;;;;5077867;28;20427;-63
2023/03/06 03:21:52;;;;;;;9.00;3.10;;;2.90;99.90;;;;;;5077694;28;20470;-60
2023/03/06 03:24:19;;;;;;;4.13;2.70;;;2.90;99.90;;;;;;5077879;28;20436;-59
2023/03/06 03:26:48;;;;;;;4.83;2.37;;;2.90;99.90;;;;;;5077859;28;20460;-61
2023/03/06 03:29:15;;;;;;;3.83;2.10;;;2.90;99.90;;;;;;5077753;28;20427;-64
2023/03/06 03:31:42;;;;;;;3.37;2.50;;;3.00;99.90;;;;;;5081979;28;20479;-60
2023/03/06 03:34:10;;;;;;;2.43;2.00;;;3.00;99.90;;;;;;5081720;28;20459;-60
2023/03/06 03:36:37;;;;;;;6.07;2.93;;;3.00;99.90;;;;;;5081809;28;20423;-56
2023/03/06 03:39:06;;;;;;;1.80;1.30;;;3.00;99.90;;;;;;5082383;28;20479;-51
2023/03/06 03:41:34;;;;;;;3.33;2.57;;;3.00;99.90;;;;;;5082727;28;20434;-52
2023/03/06 03:44:00;;;;;;;6.50;2.20;;;3.00;99.90;;;;;;5082607;28;20485;-54
2023/03/06 03:46:27;;;;;;;5.43;2.17;;;3.00;99.90;;;;;;5082482;28;20418;-54
2023/03/06 03:48:54;;;;;;;2.27;1.43;;;3.00;99.90;;;;;;5082094;28;20431;-55
2023/03/06 03:51:22;;;;;;;3.47;2.03;;;3.00;99.90;;;;;;5081879;28;20486;-62
2023/03/06 03:53:50;;;;;;;3.17;1.53;;;3.00;99.90;;;;;;5080964;28;20766;-58
2023/03/06 03:56:17;;;;;;;5.20;2.20;;;3.00;99.90;;;;;;5081327;28;20462;-62
2023/03/06 03:58:44;;;;;;;3.47;2.70;;;3.00;99.90;;;;;;5081007;28;20462;-62
2023/03/06 04:01:11;;;;;;;3.00;1.73;;;3.00;99.90;;;;;;5081474;28;20453;-60
2023/03/06 04:03:37;;;;;;;2.70;1.70;;;3.00;99.90;;;;;;5081480;28;20423;-58
2023/03/06 04:06:05;;;;;;;2.03;1.27;;;3.00;99.90;;;;;;5081746;28;20438;-55
2023/03/06 04:08:33;;;;;;;4.50;1.70;;;3.00;99.90;;;;;;5081572;28;20408;-58
2023/03/06 04:11:00;;;;;;;3.40;1.77;;;3.00;99.90;;;;;;5081285;28;20466;-61
2023/03/06 04:13:27;;;;;;;2.87;2.30;;;3.00;99.90;;;;;;5081310;28;20450;-63
2023/03/06 04:15:55;;;;;;;4.73;3.40;;;3.00;99.90;;;;;;5081323;28;20496;-62
2023/03/06 04:18:23;;;;;;;2.63;2.00;;;3.00;99.90;;;;;;5080820;28;20495;-58
2023/03/06 04:20:50;;;;;;;2.90;1.40;;;3.00;99.90;;;;;;5080653;28;20450;-60
2023/03/06 04:23:21;;;;;;;3.40;3.10;;;3.00;99.90;;;;;;5080886;28;20459;-62
2023/03/06 04:28:15;;;;;;;5.63;2.63;;;3.00;99.90;;;;;;5161832;22;20493;-56
2023/03/06 04:30:43;;;;;;;4.37;3.23;;;2.90;99.90;;;;;;5099576;28;20659;-64
2023/03/06 04:33:09;;;;;;;4.30;2.70;;;2.80;99.90;;;;;;5099303;28;20438;-63
2023/03/06 04:35:36;;;;;;;4.10;2.37;;;2.70;99.90;;;;;;5100151;28;20437;-65
2023/03/06 04:38:03;;;;;;;2.80;2.30;;;2.70;99.90;;;;;;5099640;28;20486;-62
2023/03/06 04:40:34;;;;;;;2.20;2.00;;;2.70;99.90;;;;;;5098978;28;20450;-65
2023/03/06 04:43:02;;;;;;;2.27;1.77;;;2.60;99.90;;;;;;5098904;28;20433;-63
2023/03/06 04:45:31;;;;;;;4.73;2.10;;;2.60;99.90;;;;;;5098517;28;20494;-57
2023/03/06 04:47:59;;;;;;;2.03;1.83;;;2.60;99.90;;;;;;5098725;28;20473;-68
2023/03/06 04:50:31;;;;;;;3.77;2.40;;;2.60;99.90;;;;;;5098407;28;20466;-61
2023/03/06 04:52:58;;;;;;;6.30;2.07;;;2.60;99.90;;;;;;5098434;28;20423;-62
2023/03/06 04:55:25;;;;;;;4.30;2.70;;;2.50;99.90;;;;;;5098049;28;20457;-61
2023/03/06 04:57:52;;;;;;;2.57;1.80;;;2.50;99.90;;;;;;5098672;28;20466;-63
2023/03/06 05:00:22;;;;;;;3.80;1.93;;;2.50;99.90;;;;;;5098305;28;20445;-64
2023/03/06 05:02:51;;;;;;;4.93;2.73;;;2.40;99.90;;;;;;5098334;28;20473;-64
2023/03/06 05:05:18;;;;;;;3.10;2.17;;;2.50;99.90;;;;;;5098262;28;20459;-65
2023/03/06 05:07:45;;;;;;;3.53;2.57;;;2.50;99.90;;;;;;5098388;28;20461;-63
2023/03/06 05:10:15;;;;;;;3.77;1.80;;;2.50;99.90;;;;;;5097668;28;20462;-61
2023/03/06 05:12:42;;;;;;;2.90;2.43;;;2.50;99.90;;;;;;5096968;28;20458;-63
2023/03/06 05:15:11;;;;;;;3.10;1.67;;;2.40;99.90;;;;;;5097189;28;20430;-65
2023/03/06 05:17:38;;;;;;;3.60;3.10;;;2.40;99.90;;;;;;5097243;28;20462;-62
2023/03/06 05:20:11;;;;;;;2.87;2.27;;;2.40;99.90;;;;;;5097730;28;20446;-65
2023/03/06 05:22:37;;;;;;;3.97;2.10;;;2.40;99.90;;;;;;5096769;28;20418;-63
2023/03/06 05:25:05;;;;;;;4.63;3.00;;;2.40;99.90;;;;;;5097121;28;20490;-65
2023/03/06 05:27:34;;;;;;;4.27;2.53;;;2.40;99.90;;;;;;5096897;28;20485;-59
2023/03/06 05:30:01;;;;;;;3.50;1.93;;;2.40;99.90;;;;;;5097303;28;20458;-63
2023/03/06 05:32:28;;;;;;;4.03;3.00;;;2.40;99.90;;;;;;5097645;28;20450;-64
2023/03/06 05:34:55;;;;;;;2.67;2.33;;;2.30;99.90;;;;;;5097854;28;20450;-61
2023/03/06 05:37:23;;;;;;;2.53;2.17;;;2.40;99.90;;;;;;5097614;28;20463;-64
2023/03/06 05:39:50;;;;;;;3.60;1.93;;;2.40;99.90;;;;;;5097947;28;20457;-65
2023/03/06 05:42:17;;;;;;;3.37;2.17;;;2.50;99.90;;;;;;5097536;28;20442;-66
2023/03/06 05:44:45;;;;;;;6.00;3.03;;;2.50;99.90;;;;;;5098415;28;20468;-61
2023/03/06 05:47:12;;;;;;;1.60;1.30;;;2.40;99.90;;;;;;5098146;28;20470;-55
2023/03/06 05:49:39;;;;;;;2.23;1.53;;;2.40;99.90;;;;;;5098109;28;20446;-54
2023/03/06 05:52:07;;;;;;;4.13;1.93;;;2.40;99.90;;;;;;5097538;28;20486;-60
2023/03/06 05:54:37;;;;;;;4.13;2.40;;;2.30;99.90;;;;;;5097295;28;20446;-59
2023/03/06 05:57:05;;;;;;;2.40;2.20;;;2.40;99.90;;;;;;5096931;28;20423;-63
2023/03/06 05:59:33;;;;;;;5.87;2.70;;;2.30;99.90;;;;;;5097648;28;20437;-63
2023/03/06 06:02:00;;;;;;;4.20;2.00;;;3.10;99.90;;;;;;5097387;28;20438;-62
2023/03/06 06:04:27;;;;;;;3.00;2.33;;;2.30;99.90;;;;;;5097013;28;20490;-61
2023/03/06 06:06:55;;;;;;;3.47;2.27;;;2.30;99.90;;;;;;5096032;28;20466;-63
2023/03/06 06:09:22;;;;;;;2.83;1.87;;;2.30;99.90;;;;;;5096553;28;20461;-63
2023/03/06 06:11:53;;;;;;;3.37;2.33;;;2.40;99.90;;;;;;5096555;28;20478;-66
2023/03/06 06:14:20;;;;;;;3.80;2.67;;;2.40;99.90;;;;;;5096934;28;20466;-63
2023/03/06 06:16:47;;;;;;;3.20;1.97;;;2.40;99.90;;;;;;5096592;28;20446;-58
2023/03/06 06:19:17;;;;;;;2.93;2.37;;;2.50;99.90;;;;;;5097147;28;20443;-65
2023/03/06 06:21:46;;;;;;;2.50;2.20;;;2.50;99.90;;;;;;5096902;28;20422;-61
2023/03/06 06:24:14;;;;;;;5.43;3.40;;;2.50;99.90;;;;;;5096705;28;20438;-60
2023/03/06 06:26:41;;;;;;;2.20;1.70;;;2.50;99.90;;;;;;5095765;28;20453;-61
2023/03/06 06:29:09;;;;;;;4.60;2.90;;;2.50;99.90;;;;;;5101620;28;20450;-59
2023/03/06 06:31:36;;;;;;;5.27;2.60;;;2.50;99.90;;;;;;5097077;28;20485;-63
2023/03/06 06:34:04;;;;;;;5.20;2.87;;;2.50;99.90;;;;;;5096704;28;20486;-63
2023/03/06 06:36:31;;;;;;;6.00;2.83;;;2.50;99.90;;;;;;5096733;28;20497;-64
2023/03/06 06:38:58;;;;;;;5.90;3.07;;;2.40;99.90;;;;;;5099173;28;20450;-66
2023/03/06 06:41:26;;;;;;;6.17;3.20;;;2.40;99.90;;;;;;5096604;28;20450;-64
2023/03/06 06:43:53;;;;;;;3.23;2.83;;;2.40;99.90;;;;;;5096082;28;20439;-64
2023/03/06 06:46:22;;;;;;;11.13;3.07;;;2.30;99.90;;;;;;5096090;28;20430;-61
2023/03/06 06:48:49;;;;;;;5.00;3.00;;;2.40;99.90;;;;;;5095657;28;20519;-62
2023/03/06 06:51:18;;;;;;;5.03;3.23;;;2.40;99.90;;;;;;5095427;28;20482;-64
2023/03/06 06:53:44;;;;;;;4.63;3.23;;;2.40;99.90;;;;;;5095422;28;20466;-59
2023/03/06 06:56:11;;;;;;;8.23;3.50;;;2.40;99.90;;;;;;5095186;28;20430;-65
2023/03/06 06:58:38;;;;;;;3.93;2.43;;;2.30;99.90;;;;;;5096313;28;20431;-65
2023/03/06 07:01:06;;;;;;;4.57;3.00;;;2.30;99.90;;;;;;5095678;28;20439;-63
2023/03/06 07:03:34;;;;;;;7.00;3.30;;;2.30;99.90;;;;;;5095981;28;20434;-64
2023/03/06 07:06:01;;;;;;;5.30;3.80;;;2.30;99.90;;;;;;5096478;28;20467;-64
2023/03/06 07:08:28;;;;;;;4.07;3.50;;;2.40;99.90;;;;;;5097173;28;20439;-58
2023/03/06 07:10:55;;;;;;;5.20;3.17;;;2.40;99.90;;;;;;5096766;28;20458;-63
2023/03/06 07:13:24;;;;;;;7.43;3.97;;;2.40;99.90;;;;;;5096165;28;20434;-63
2023/03/06 07:15:51;;;;;;;7.50;3.60;;;2.40;99.90;;;;;;5095658;28;20458;-63
2023/03/06 07:18:18;;;;;;;4.60;3.00;;;2.40;99.90;;;;;;5095272;28;20445;-62
2023/03/06 07:20:46;;;;;;;6.90;3.50;;;2.50;99.90;;;;;;5095484;28;20457;-62
2023/03/06 07:23:13;;;;;;;5.37;4.00;;;2.40;99.90;;;;;;5095621;28;20454;-64
2023/03/06 07:25:40;;;;;;;4.57;2.87;;;2.40;99.90;;;;;;5095511;28;20434;-62
2023/03/06 07:28:08;;;;;;;2.90;1.90;;;2.40;99.90;;;;;;5095489;28;20477;-64
2023/03/06 07:30:35;;;;;;;4.97;2.90;;;2.40;99.90;;;;;;5095763;28;20453;-61
2023/03/06 07:33:02;;;;;;;5.07;3.07;;;2.40;99.90;;;;;;5094869;28;20489;-65
2023/03/06 07:35:29;;;;;;;5.33;3.23;;;2.40;99.90;;;;;;5095879;28;20422;-58
2023/03/06 07:37:58;;;;;;;3.10;2.60;;;2.50;99.90;;;;;;5096049;28;20446;-64
2023/03/06 07:40:25;;;;;;;6.00;2.80;;;2.60;99.90;;;;;;5095502;28;20438;-57
2023/03/06 07:42:54;;;;;;;4.40;2.60;;;2.60;99.90;;;;;;5095086;28;20450;-63
2023/03/06 07:45:21;;;;;;;4.20;3.03;;;2.60;99.90;;;;;;5095420;28;20446;-63
2023/03/06 07:47:50;;;;;;;2.73;2.50;;;2.70;99.90;;;;;;5095311;28;20442;-65
2023/03/06 07:50:17;;;;;;;3.70;3.30;;;2.70;99.90;;;;;;5094838;28;20482;-63
2023/03/06 07:52:44;;;;;;;4.57;2.93;;;2.70;99.90;;;;;;5096008;28;20550;-58
2023/03/06 07:55:13;;;;;;;3.30;2.50;;;2.70;99.90;;;;;;5095464;28;20471;-61
2023/03/06 07:57:40;;;;;;;4.77;2.93;;;2.70;99.90;;;;;;5095538;28;20449;-63
2023/03/06 08:00:11;;;;;;;3.57;2.30;;;2.80;99.90;;;;;;5094593;28;20466;-60
2023/03/06 08:02:37;;;;;;;5.60;2.90;;;2.80;99.90;;;;;;5095440;28;20465;-64
2023/03/06 08:05:05;;;;;;;3.27;2.27;;;3.00;99.90;;;;;;5095260;28;20435;-66
2023/03/06 08:07:32;;;;;;;4.47;2.97;;;2.90;99.90;;;;;;5095133;28;20438;-61
2023/03/06 08:09:59;;;;;;;3.97;3.20;;;2.90;99.90;;;;;;5095201;28;20466;-60
2023/03/06 08:12:28;;;;;;;3.93;2.00;;;2.90;99.90;;;;;;5095122;28;20500;-66
2023/03/06 08:14:55;;;;;;;2.33;1.70;;;2.90;99.90;;;;;;5096093;28;20439;-60
2023/03/06 08:17:22;;;;;;;3.90;3.50;;;3.20;99.90;;;;;;5099574;28;20492;-64
2023/03/06 08:19:49;;;;;;;3.33;3.00;;;2.80;99.90;;;;;;5098954;28;20442;-64
2023/03/06 08:22:16;;;;;;;3.93;2.43;;;2.80;99.90;;;;;;5098687;28;20469;-63
2023/03/06 08:24:45;;;;;;;3.87;3.00;;;2.80;99.90;;;;;;5099229;28;20434;-63
2023/03/06 08:27:12;;;;;;;5.13;2.30;;;2.70;99.90;;;;;;5099038;28;20454;-66
2023/03/06 08:29:40;;;;;;;4.27;2.83;;;2.70;99.90;;;;;;5100065;28;20427;-60
2023/03/06 08:32:11;;;;;;;5.27;2.27;;;2.70;99.90;;;;;;5099586;28;20489;-63
2023/03/06 08:34:41;;;;;;;3.57;2.87;;;2.80;99.90;;;;;;5100077;28;20474;-62
2023/03/06 08:37:08;;;;;;;5.43;2.60;;;2.70;99.90;;;;;;5099525;28;20450;-65
2023/03/06 08:39:35;;;;;;;2.33;1.87;;;2.80;99.90;;;;;;5099226;28;20454;-62
2023/03/06 08:42:02;;;;;;;2.60;1.80;;;2.70;99.90;;;;;;5099424;28;20469;-63
2023/03/06 08:44:28;;;;;;;2.30;1.87;;;2.70;99.90;;;;;;5099601;28;20476;-61
2023/03/06 08:46:57;;;;;;;5.50;2.13;;;2.70;99.90;;;;;;5099492;28;20453;-66
2023/03/06 08:49:23;;;;;;;4.47;2.63;;;2.70;99.90;;;;;;5099529;28;20423;-65
2023/03/06 08:51:50;;;;;;;7.47;2.43;;;2.70;99.90;;;;;;5099272;28;20504;-64
2023/03/06 08:54:17;;;;;;;1.90;1.43;;;2.70;99.90;;;;;;5099101;28;20442;-60
2023/03/06 08:56:44;;;;;;;2.57;1.50;;;2.70;99.90;;;;;;5099332;28;20458;-63
2023/03/06 08:59:12;;;;;;;4.57;1.90;;;2.80;99.90;;;;;;5099375;28;20462;-62
2023/03/06 09:01:40;;;;;;;4.37;2.17;;;2.80;99.90;;;;;;5099185;28;20476;-60
2023/03/06 09:04:10;;;;;;;2.07;1.77;;;2.80;99.90;;;;;;5099533;28;20427;-63
2023/03/06 09:06:39;;;;;;;1.87;1.60;;;2.70;99.90;;;;;;5099356;28;20438;-65
2023/03/06 09:09:09;;;;;;;3.37;1.40;;;2.70;99.90;;;;;;5098882;28;20474;-62
2023/03/06 09:11:36;;;;;;;2.70;2.23;;;2.70;99.90;;;;;;5099099;28;20490;-63
2023/03/06 09:14:04;;;;;;;2.97;1.30;;;2.70;99.90;;;;;;5098875;28;20430;-63
2023/03/06 09:16:31;;;;;;;3.10;2.03;;;2.70;99.90;;;;;;5099230;28;20472;-62
2023/03/06 09:18:58;;;;;;;2.57;2.20;;;2.70;99.90;;;;;;5099191;28;20475;-63
2023/03/06 09:21:27;;;;;;;3.67;1.70;;;2.80;99.90;;;;;;5098366;28;20430;-65
2023/03/06 09:23:54;;;;;;;1.47;1.37;;;2.80;99.90;;;;;;5098758;28;20455;-65
2023/03/06 09:26:21;;;;;;;3.80;1.77;;;2.70;99.90;;;;;;5098672;28;20438;-61
2023/03/06 09:28:48;;;;;;;2.60;1.40;;;2.70;99.90;;;;;;5097136;28;20431;-61
2023/03/06 09:31:17;;;;;;;2.40;1.73;;;2.70;99.90;;;;;;5098365;28;20437;-63
2023/03/06 09:33:44;;;;;;;1.40;0.93;;;2.70;99.90;;;;;;5099083;28;20437;-62
2023/03/06 09:36:16;;;;;;;1.50;1.33;;;2.80;99.90;;;;;;5099347;28;20910;-62
2023/03/06 09:38:46;;;;;;;2.97;1.63;;;2.80;99.90;;;;;;5099415;28;20476;-62
2023/03/06 09:41:27;;;;;;;1.33;0.97;;;2.80;99.90;;;;;;5098540;28;20462;-57
2023/03/06 09:44:03;;;;;;;4.50;1.83;;;2.70;99.90;;;;;;5098823;28;20448;-62
2023/03/06 09:46:41;;;;;;;2.83;1.60;;;2.80;99.90;;;;;;5098734;28;20481;-61
2023/03/06 09:49:28;;;;;;;2.00;1.33;;;2.70;99.90;;;;;;5098929;28;20431;-61
2023/03/06 09:52:03;;;;;;;5.47;1.40;;;2.80;99.90;;;;;;5098492;28;20545;-63
2023/03/06 09:54:40;;;;;;;1.57;1.10;;;2.80;99.90;;;;;;5098287;28;20449;-64
2023/03/06 09:57:18;;;;;;;5.57;1.00;;;2.90;99.90;;;;;;5098010;28;20460;-59
2023/03/06 09:59:49;;;;;;;2.07;1.03;;;2.90;99.90;;;;;;5098158;28;20438;-65
2023/03/06 10:02:24;;;;;;;2.10;1.40;;;3.00;99.90;;;;;;5097760;28;20422;-65
2023/03/06 10:04:58;;;;;;;3.33;1.27;;;3.00;99.90;;;;;;5097485;28;20480;-64
2023/03/06 10:07:33;;;;;;;1.93;1.20;;;3.00;99.90;;;;;;5097909;28;20431;-66
2023/03/06 10:10:05;;;;;;;3.50;1.10;;;3.10;99.90;;;;;;5097566;28;20420;-65
2023/03/06 10:12:37;;;;;;;3.37;1.37;;;3.20;99.90;;;;;;5097581;28;20466;-61
2023/03/06 10:15:14;;;;;;;2.10;1.40;;;3.20;99.90;;;;;;5097641;28;20470;-62
2023/03/06 10:17:42;;;;;;;2.97;1.40;;;3.10;99.90;;;;;;5097506;28;20442;-62
2023/03/06 10:20:17;;;;;;;3.50;1.10;;;3.10;99.90;;;;;;5097422;28;20490;-62
2023/03/06 10:22:48;;;;;;;1.43;1.00;;;3.20;99.90;;;;;;5097732;28;20422;-63
2023/03/06 10:25:22;;;;;;;6.50;1.40;;;3.30;99.90;;;;;;5097159;28;20486;-65
2023/03/06 10:27:51;;;;;;;1.73;1.27;;;3.30;99.90;;;;;;5097327;28;20446;-62
2023/03/06 10:30:28;;;;;;;5.37;1.10;;;3.30;99.90;;;;;;5097416;28;20454;-58
2023/03/06 10:32:57;;;;;;;1.93;0.90;;;3.40;99.90;;;;;;5098000;28;20906;-62
2023/03/06 10:35:28;;;;;;;4.40;1.27;;;3.30;99.90;;;;;;5097546;28;20418;-61
2023/03/06 10:38:01;;;;;;;1.10;0.90;;;3.40;99.90;;;;;;5097402;28;20481;-58
2023/03/06 10:40:38;;;;;;;2.47;1.03;;;3.40;99.90;;;;;;5097978;28;20430;-63
2023/03/06 10:43:10;;;;;;;1.53;0.90;;;3.40;99.90;;;;;;5097348;28;20462;-63
2023/03/06 10:45:47;;;;;;;2.67;1.53;;;3.40;99.90;;;;;;5097130;28;20435;-62
2023/03/06 10:48:20;;;;;;;2.33;1.10;;;3.40;99.90;;;;;;5097289;28;20480;-64
2023/03/06 10:50:47;;;;;;;5.77;1.80;;;3.30;99.90;;;;;;5097600;28;20495;-64
2023/03/06 10:53:22;;;;;;;3.50;1.43;;;3.20;99.90;;;;;;5097111;28;20470;-62
2023/03/06 10:55:57;;;;;;;1.83;1.00;;;3.20;99.90;;;;;;5097106;28;20419;-65
2023/03/06 10:58:26;;;;;;;1.53;1.10;;;3.20;99.90;;;;;;5095962;28;20441;-61
2023/03/06 11:01:06;;;;;;;3.63;1.60;;;3.20;99.90;;;;;;5097068;28;20411;-62
2023/03/06 11:03:35;;;;;;;2.33;0.90;;;3.20;99.90;;;;;;5096814;28;20458;-64
2023/03/06 11:06:14;;;;;;;3.10;0.97;;;3.20;99.90;;;;;;5096210;28;20429;-67
2023/03/06 11:08:43;;;;;;;2.03;1.33;;;3.30;99.90;;;;;;5096310;28;20486;-61
2023/03/06 11:11:15;;;;;;;2.80;0.93;;;3.30;99.90;;;;;;5096655;28;20445;-61
2023/03/06 11:13:44;;;;;;;4.00;1.43;;;3.30;99.90;;;;;;5095674;28;20477;-65
2023/03/06 11:16:19;;;;;;;1.67;0.90;;;3.30;99.90;;;;;;5095737;28;20458;-64
2023/03/06 11:18:57;;;;;;;1.30;1.20;;;3.30;99.90;;;;;;5096103;28;20437;-65
2023/03/06 11:21:28;;;;;;;1.33;1.10;;;3.40;99.90;;;;;;5095852;28;20466;-58
2023/03/06 11:23:57;;;;;;;1.20;0.90;;;3.50;99.90;;;;;;5095853;28;20423;-61
2023/03/06 11:26:35;;;;;;;1.87;1.13;;;3.50;99.90;;;;;;5096443;28;20449;-60
2023/03/06 11:29:11;;;;;;;7.30;1.30;;;3.60;99.90;;;;;;5097128;28;20445;-59
2023/03/06 11:31:43;;;;;;;1.50;1.10;;;3.60;99.90;;;;;;5096915;28;20430;-53
2023/03/06 11:34:19;;;;;;;1.63;0.90;;;3.70;99.90;;;;;;5095770;28;20526;-63
2023/03/06 11:36:50;;;;;;;4.33;0.90;;;3.80;99.90;;;;;;5096828;28;20445;-58
2023/03/06 11:39:26;;;;;;;1.73;1.17;;;3.70;99.90;;;;;;5096419;28;20849;-58
2023/03/06 11:42:03;;;;;;;1.40;1.03;;;3.70;99.90;;;;;;5096425;28;20433;-63
2023/03/06 11:44:42;;;;;;;1.80;1.10;;;3.70;99.90;;;;;;5096299;28;20892;-60
2023/03/06 11:47:17;;;;;;;4.40;1.30;;;3.70;99.90;;;;;;5096615;28;20449;-61
2023/03/06 11:49:49;;;;;;;1.37;0.80;;;3.60;99.90;;;;;;5096292;28;20469;-62
2023/03/06 11:52:22;;;;;;;1.67;0.97;;;3.60;99.90;;;;;;5100157;28;20427;-62
2023/03/06 11:54:54;;;;;;;1.40;1.00;;;3.50;99.90;;;;;;5100760;28;20480;-57
2023/03/06 11:57:25;;;;;;;2.77;1.47;;;3.60;99.90;;;;;;5100553;28;20427;-62
2023/03/06 12:00:19;;;;;;;4.90;1.90;;;3.60;99.90;;;;;;5100207;28;20465;-60
2023/03/06 12:03:34;;;;;;;2.50;1.17;;;3.70;99.90;;;;;;5100199;28;20426;-59
2023/03/06 12:06:05;;;;;;;2.97;1.20;;;3.70;99.90;;;;;;5067359;28;20450;-61
2023/03/06 12:08:47;;;;;;;1.30;1.00;;;3.80;99.90;;;;;;5099925;28;20448;-62
2023/03/06 12:11:20;;;;;;;2.80;1.43;;;3.90;99.90;;;;;;5100983;28;20493;-58
2023/03/06 12:14:19;;;;;;;2.03;0.80;;;3.90;99.90;;;;;;5099707;28;20489;-58
2023/03/06 12:17:05;;;;;;;1.90;1.17;;;3.90;99.90;;;;;;5094086;28;20500;-63
2023/03/06 12:19:50;;;;;;;1.73;1.10;;;3.90;99.90;;;;;;5100310;28;20458;-65
2023/03/06 12:22:39;;;;;;;3.03;1.27;;;3.90;99.90;;;;;;5100116;28;20458;-65
2023/03/06 12:25:36;;;;;;;1.80;1.50;;;4.00;99.90;;;;;;5100709;28;20468;-60
2023/03/06 12:28:21;;;;;;;1.10;0.90;;;4.10;99.90;;;;;;5099667;28;20520;-62
2023/03/06 12:31:13;;;;;;;1.60;1.27;;;4.20;99.90;;;;;;5100417;28;20497;-66
2023/03/06 12:33:49;;;;;;;1.40;1.10;;;4.20;99.90;;;;;;5099270;28;20482;-61
2023/03/06 12:36:42;;;;;;;1.97;1.43;;;4.10;99.90;;;;;;5099688;28;20422;-60
2023/03/06 12:39:21;;;;;;;2.87;2.10;;;4.00;99.90;;;;;;5100113;28;20484;-62
2023/03/06 12:42:03;;;;;;;3.73;1.93;;;4.10;99.90;;;;;;5099880;28;20635;-63
2023/03/06 12:45:09;;;;;;;4.03;2.07;;;4.10;99.90;;;;;;5099686;28;20477;-65
2023/03/06 12:47:42;;;;;;;2.40;1.50;;;4.30;99.90;;;;;;5099756;28;20460;-64
2023/03/06 12:50:19;;;;;;;7.17;3.70;;;4.40;99.90;;;;;;5100045;28;20473;-61
2023/03/06 12:52:47;;;;;;;5.03;3.07;;;4.40;99.90;;;;;;5100231;28;20478;-60
2023/03/06 12:55:18;;;;;;;29.20;11.37;;;4.60;99.90;;;;;;5100122;28;20450;-60
2023/03/06 12:57:47;;;;;;;4.03;2.63;;;4.50;99.90;;;;;;5099563;28;20445;-59
2023/03/06 13:00:47;;;;;;;7.57;2.70;;;4.60;99.90;;;;;;5098730;28;20447;-64
2023/03/06 13:03:19;;;;;;;4.77;2.17;;;4.70;99.90;;;;;;5098956;28;20429;-63
2023/03/06 13:06:12;;;;;;;4.17;2.57;;;4.80;99.90;;;;;;5098826;28;20437;-64
2023/03/06 13:09:08;;;;;;;5.20;2.43;;;5.00;99.90;;;;;;5094694;28;20450;-64
2023/03/06 13:12:08;;;;;;;4.17;2.03;;;5.00;99.90;;;;;;5099761;28;20410;-61
2023/03/06 13:14:52;;;;;;;4.10;2.67;;;4.90;99.90;;;;;;5099283;28;20462;-63
2023/03/06 13:17:34;;;;;;;5.50;2.67;;;4.90;99.90;;;;;;5099272;28;20429;-63